sensor_id;sensor_type;location;lat;lon;timestamp;P1;durP1;ratioP1;P2;durP2;ratioP2
44730;SDS011;30458;47.448;19.032;2022-07-26T00:03:49;4.85;;;3.75;;
44730;SDS011;30458;47.448;19.032;2022-07-26T00:13:50;4.93;;;3.60;;
44730;SDS011;30458;47.448;19.032;2022-07-26T00:23:52;5.32;;;3.78;;
44730;SDS011;30458;47.448;19.032;2022-07-26T00:33:55;4.82;;;3.80;;
44730;SDS011;30458;47.448;19.032;2022-07-26T00:43:58;6.75;;;4.43;;
44730;SDS011;30458;47.448;19.032;2022-07-26T00:54:02;5.63;;;4.15;;
44730;SDS011;30458;47.448;19.032;2022-07-26T01:04:04;6.55;;;4.03;;
44730;SDS011;30458;47.448;19.032;2022-07-26T01:14:05;5.30;;;3.97;;
44730;SDS011;30458;47.448;19.032;2022-07-26T01:24:06;8.43;;;4.47;;
44730;SDS011;30458;47.448;19.032;2022-07-26T01:34:10;5.00;;;4.03;;
44730;SDS011;30458;47.448;19.032;2022-07-26T01:44:13;7.40;;;4.05;;
44730;SDS011;30458;47.448;19.032;2022-07-26T01:54:17;5.95;;;4.00;;
44730;SDS011;30458;47.448;19.032;2022-07-26T02:04:17;5.53;;;4.38;;
44730;SDS011;30458;47.448;19.032;2022-07-26T02:14:37;6.85;;;4.05;;
44730;SDS011;30458;47.448;19.032;2022-07-26T02:24:37;5.63;;;4.30;;
44730;SDS011;30458;47.448;19.032;2022-07-26T02:34:41;5.85;;;4.50;;
44730;SDS011;30458;47.448;19.032;2022-07-26T02:44:44;4.13;;;3.72;;
44730;SDS011;30458;47.448;19.032;2022-07-26T02:54:45;4.53;;;3.80;;
44730;SDS011;30458;47.448;19.032;2022-07-26T03:04:46;7.30;;;3.92;;
44730;SDS011;30458;47.448;19.032;2022-07-26T03:14:46;4.35;;;3.70;;
44730;SDS011;30458;47.448;19.032;2022-07-26T03:24:48;6.30;;;3.80;;
44730;SDS011;30458;47.448;19.032;2022-07-26T03:34:49;6.95;;;4.38;;
44730;SDS011;30458;47.448;19.032;2022-07-26T03:44:49;5.38;;;4.10;;
44730;SDS011;30458;47.448;19.032;2022-07-26T03:54:50;5.60;;;3.88;;
44730;SDS011;30458;47.448;19.032;2022-07-26T04:04:52;5.95;;;3.78;;
44730;SDS011;30458;47.448;19.032;2022-07-26T04:14:52;7.53;;;4.28;;
44730;SDS011;30458;47.448;19.032;2022-07-26T04:25:08;6.10;;;4.30;;
44730;SDS011;30458;47.448;19.032;2022-07-26T04:35:09;6.10;;;4.60;;
44730;SDS011;30458;47.448;19.032;2022-07-26T04:45:10;6.03;;;4.35;;
44730;SDS011;30458;47.448;19.032;2022-07-26T04:55:12;6.60;;;4.10;;
44730;SDS011;30458;47.448;19.032;2022-07-26T05:05:18;5.85;;;4.32;;
44730;SDS011;30458;47.448;19.032;2022-07-26T05:15:19;6.22;;;4.45;;
44730;SDS011;30458;47.448;19.032;2022-07-26T05:25:23;5.65;;;4.43;;
44730;SDS011;30458;47.448;19.032;2022-07-26T05:35:25;6.03;;;4.55;;
44730;SDS011;30458;47.448;19.032;2022-07-26T05:45:25;6.57;;;4.88;;
44730;SDS011;30458;47.448;19.032;2022-07-26T05:55:29;6.25;;;4.28;;
44730;SDS011;30458;47.448;19.032;2022-07-26T06:05:32;8.30;;;4.90;;
44730;SDS011;30458;47.448;19.032;2022-07-26T06:15:35;7.03;;;5.15;;
44730;SDS011;30458;47.448;19.032;2022-07-26T06:25:37;6.38;;;4.82;;
44730;SDS011;30458;47.448;19.032;2022-07-26T06:35:38;6.75;;;5.38;;
44730;SDS011;30458;47.448;19.032;2022-07-26T06:45:39;7.78;;;6.15;;
44730;SDS011;30458;47.448;19.032;2022-07-26T06:55:42;6.95;;;6.10;;
44730;SDS011;30458;47.448;19.032;2022-07-26T07:05:43;6.90;;;6.28;;
44730;SDS011;30458;47.448;19.032;2022-07-26T07:15:47;7.65;;;6.20;;
44730;SDS011;30458;47.448;19.032;2022-07-26T07:25:50;13.30;;;7.35;;
44730;SDS011;30458;47.448;19.032;2022-07-26T07:35:51;8.00;;;6.78;;
44730;SDS011;30458;47.448;19.032;2022-07-26T07:45:52;6.45;;;5.82;;
44730;SDS011;30458;47.448;19.032;2022-07-26T07:55:53;8.93;;;6.33;;
44730;SDS011;30458;47.448;19.032;2022-07-26T08:05:54;8.50;;;5.55;;
44730;SDS011;30458;47.448;19.032;2022-07-26T08:15:55;6.90;;;5.60;;
44730;SDS011;30458;47.448;19.032;2022-07-26T08:25:58;7.07;;;5.72;;
44730;SDS011;30458;47.448;19.032;2022-07-26T08:35:59;9.80;;;6.13;;
44730;SDS011;30458;47.448;19.032;2022-07-26T08:46:02;6.68;;;5.82;;
44730;SDS011;30458;47.448;19.032;2022-07-26T08:56:05;6.23;;;5.60;;
44730;SDS011;30458;47.448;19.032;2022-07-26T09:06:19;7.63;;;5.82;;
44730;SDS011;30458;47.448;19.032;2022-07-26T09:16:21;6.43;;;5.80;;
44730;SDS011;30458;47.448;19.032;2022-07-26T09:26:22;5.80;;;5.30;;
44730;SDS011;30458;47.448;19.032;2022-07-26T09:36:23;7.53;;;6.07;;
44730;SDS011;30458;47.448;19.032;2022-07-26T09:46:29;6.70;;;6.10;;
44730;SDS011;30458;47.448;19.032;2022-07-26T09:56:43;7.97;;;6.03;;
44730;SDS011;30458;47.448;19.032;2022-07-26T10:06:51;6.78;;;5.47;;
44730;SDS011;30458;47.448;19.032;2022-07-26T10:16:57;7.77;;;6.13;;
44730;SDS011;30458;47.448;19.032;2022-07-26T10:27:36;6.93;;;5.75;;
44730;SDS011;30458;47.448;19.032;2022-07-26T10:37:55;7.13;;;6.25;;
44730;SDS011;30458;47.448;19.032;2022-07-26T10:48:16;7.18;;;6.47;;
44730;SDS011;30458;47.448;19.032;2022-07-26T10:58:19;6.78;;;6.18;;
44730;SDS011;30458;47.448;19.032;2022-07-26T11:08:27;7.07;;;5.80;;
44730;SDS011;30458;47.448;19.032;2022-07-26T11:18:31;8.38;;;7.47;;
44730;SDS011;30458;47.448;19.032;2022-07-26T11:28:53;7.10;;;6.40;;
44730;SDS011;30458;47.448;19.032;2022-07-26T11:38:56;7.32;;;6.63;;
44730;SDS011;30458;47.448;19.032;2022-07-26T11:48:58;6.90;;;6.20;;
44730;SDS011;30458;47.448;19.032;2022-07-26T11:59:01;7.60;;;6.78;;
44730;SDS011;30458;47.448;19.032;2022-07-26T12:09:02;7.07;;;6.38;;
44730;SDS011;30458;47.448;19.032;2022-07-26T12:19:03;7.53;;;6.32;;
44730;SDS011;30458;47.448;19.032;2022-07-26T12:29:06;6.20;;;5.60;;
44730;SDS011;30458;47.448;19.032;2022-07-26T12:39:26;6.75;;;5.95;;
44730;SDS011;30458;47.448;19.032;2022-07-26T12:49:27;5.68;;;5.10;;
44730;SDS011;30458;47.448;19.032;2022-07-26T12:59:28;5.05;;;4.65;;
44730;SDS011;30458;47.448;19.032;2022-07-26T13:09:31;6.25;;;5.57;;
44730;SDS011;30458;47.448;19.032;2022-07-26T13:19:33;6.35;;;5.50;;
44730;SDS011;30458;47.448;19.032;2022-07-26T13:39:40;6.57;;;6.00;;
44730;SDS011;30458;47.448;19.032;2022-07-26T13:49:41;6.20;;;5.63;;
44730;SDS011;30458;47.448;19.032;2022-07-26T13:59:41;6.35;;;5.75;;
44730;SDS011;30458;47.448;19.032;2022-07-26T14:09:42;6.90;;;6.30;;
44730;SDS011;30458;47.448;19.032;2022-07-26T14:19:43;7.60;;;6.88;;
44730;SDS011;30458;47.448;19.032;2022-07-26T14:29:47;6.90;;;6.30;;
44730;SDS011;30458;47.448;19.032;2022-07-26T14:39:54;8.77;;;7.90;;
44730;SDS011;30458;47.448;19.032;2022-07-26T14:49:55;7.28;;;6.68;;
44730;SDS011;30458;47.448;19.032;2022-07-26T14:59:59;9.63;;;8.73;;
44730;SDS011;30458;47.448;19.032;2022-07-26T15:10:00;10.18;;;9.27;;
44730;SDS011;30458;47.448;19.032;2022-07-26T15:20:03;9.27;;;8.40;;
44730;SDS011;30458;47.448;19.032;2022-07-26T15:30:05;11.63;;;10.55;;
44730;SDS011;30458;47.448;19.032;2022-07-26T15:40:07;10.82;;;9.82;;
44730;SDS011;30458;47.448;19.032;2022-07-26T15:50:10;9.65;;;8.85;;
44730;SDS011;30458;47.448;19.032;2022-07-26T16:00:16;11.17;;;10.07;;
44730;SDS011;30458;47.448;19.032;2022-07-26T16:10:19;10.90;;;9.90;;
44730;SDS011;30458;47.448;19.032;2022-07-26T16:20:20;10.93;;;9.80;;
44730;SDS011;30458;47.448;19.032;2022-07-26T16:30:22;11.70;;;10.63;;
44730;SDS011;30458;47.448;19.032;2022-07-26T16:40:24;11.15;;;10.15;;
44730;SDS011;30458;47.448;19.032;2022-07-26T16:50:27;14.15;;;12.85;;
44730;SDS011;30458;47.448;19.032;2022-07-26T17:00:28;16.63;;;15.02;;
44730;SDS011;30458;47.448;19.032;2022-07-26T17:10:29;16.75;;;15.25;;
44730;SDS011;30458;47.448;19.032;2022-07-26T17:20:32;16.48;;;14.98;;
44730;SDS011;30458;47.448;19.032;2022-07-26T17:30:36;14.15;;;12.80;;
44730;SDS011;30458;47.448;19.032;2022-07-26T17:40:42;13.65;;;12.35;;
44730;SDS011;30458;47.448;19.032;2022-07-26T17:50:45;14.77;;;13.40;;
44730;SDS011;30458;47.448;19.032;2022-07-26T18:00:46;14.88;;;13.35;;
44730;SDS011;30458;47.448;19.032;2022-07-26T18:10:49;14.80;;;13.45;;
44730;SDS011;30458;47.448;19.032;2022-07-26T18:20:49;14.83;;;13.03;;
44730;SDS011;30458;47.448;19.032;2022-07-26T18:30:51;16.15;;;14.65;;
44730;SDS011;30458;47.448;19.032;2022-07-26T18:40:55;16.65;;;15.10;;
44730;SDS011;30458;47.448;19.032;2022-07-26T18:51:00;16.85;;;15.25;;
44730;SDS011;30458;47.448;19.032;2022-07-26T19:01:02;15.95;;;14.45;;
44730;SDS011;30458;47.448;19.032;2022-07-26T19:11:03;16.08;;;14.57;;
44730;SDS011;30458;47.448;19.032;2022-07-26T19:21:07;16.55;;;14.93;;
44730;SDS011;30458;47.448;19.032;2022-07-26T19:31:07;18.27;;;16.47;;
44730;SDS011;30458;47.448;19.032;2022-07-26T19:41:09;17.27;;;15.68;;
44730;SDS011;30458;47.448;19.032;2022-07-26T19:51:10;17.00;;;15.50;;
44730;SDS011;30458;47.448;19.032;2022-07-26T20:01:11;16.38;;;14.70;;
44730;SDS011;30458;47.448;19.032;2022-07-26T20:11:14;15.57;;;14.18;;
44730;SDS011;30458;47.448;19.032;2022-07-26T20:21:21;13.95;;;12.65;;
44730;SDS011;30458;47.448;19.032;2022-07-26T20:31:22;13.10;;;11.90;;
44730;SDS011;30458;47.448;19.032;2022-07-26T20:41:23;12.05;;;10.95;;
44730;SDS011;30458;47.448;19.032;2022-07-26T20:51:24;9.27;;;8.38;;
44730;SDS011;30458;47.448;19.032;2022-07-26T21:01:28;8.13;;;7.32;;
44730;SDS011;30458;47.448;19.032;2022-07-26T21:11:32;7.30;;;6.70;;
44730;SDS011;30458;47.448;19.032;2022-07-26T21:21:35;7.47;;;6.78;;
44730;SDS011;30458;47.448;19.032;2022-07-26T21:31:40;7.63;;;6.78;;
44730;SDS011;30458;47.448;19.032;2022-07-26T21:41:46;6.55;;;6.03;;
44730;SDS011;30458;47.448;19.032;2022-07-26T21:51:48;6.18;;;5.68;;
44730;SDS011;30458;47.448;19.032;2022-07-26T22:01:53;5.88;;;5.38;;
44730;SDS011;30458;47.448;19.032;2022-07-26T22:11:57;5.75;;;5.25;;
44730;SDS011;30458;47.448;19.032;2022-07-26T22:22:00;5.80;;;5.20;;
44730;SDS011;30458;47.448;19.032;2022-07-26T22:32:06;5.28;;;4.80;;
44730;SDS011;30458;47.448;19.032;2022-07-26T22:42:07;5.25;;;4.75;;
44730;SDS011;30458;47.448;19.032;2022-07-26T22:52:08;5.95;;;5.35;;
44730;SDS011;30458;47.448;19.032;2022-07-26T23:02:12;5.50;;;4.95;;
44730;SDS011;30458;47.448;19.032;2022-07-26T23:12:16;5.43;;;4.93;;
44730;SDS011;30458;47.448;19.032;2022-07-26T23:22:23;6.05;;;5.45;;
44730;SDS011;30458;47.448;19.032;2022-07-26T23:32:24;5.95;;;4.93;;
44730;SDS011;30458;47.448;19.032;2022-07-26T23:42:25;6.60;;;5.38;;
44730;SDS011;30458;47.448;19.032;2022-07-26T23:52:29;5.85;;;5.20;;
